TimeCST,TemperatureF,Dew PointF,Humidity,Sea Level PressureIn,VisibilityMPH,Wind Direction,Wind SpeedMPH,Gust SpeedMPH,PrecipitationIn,Events,Conditions,WindDirDegrees,DateUTC
12:51 AM,44.1,19.0,37,30.03,10.0,NNW,16.1,24.2,N/A,,Overcast,340,2012-12-10 06:51:00
1:51 AM,41.0,15.1,35,30.04,10.0,North,20.7,29.9,N/A,,Overcast,350,2012-12-10 07:51:00
2:51 AM,39.9,14.0,35,30.06,10.0,NNW,26.5,36.8,N/A,,Overcast,340,2012-12-10 08:51:00
3:51 AM,39.0,12.9,34,30.10,10.0,NNW,20.7,32.2,N/A,,Overcast,330,2012-12-10 09:51:00
4:51 AM,37.9,12.0,35,30.12,10.0,North,24.2,32.2,N/A,,Overcast,350,2012-12-10 10:51:00
5:51 AM,37.0,10.9,34,30.13,10.0,NNW,15.0,25.3,N/A,,Overcast,340,2012-12-10 11:51:00
6:51 AM,37.0,14.0,39,30.15,10.0,NNW,21.9,29.9,N/A,,Overcast,340,2012-12-10 12:51:00
7:51 AM,35.1,18.0,50,30.17,10.0,NNW,13.8,-,N/A,,Partly Cloudy,340,2012-12-10 13:51:00
8:51 AM,36.0,21.9,57,30.18,10.0,NNW,15.0,-,N/A,,Clear,330,2012-12-10 14:51:00
9:51 AM,37.0,18.0,46,30.19,10.0,NNW,23.0,27.6,N/A,,Clear,340,2012-12-10 15:51:00
10:51 AM,39.9,19.9,45,30.18,10.0,NNW,18.4,26.5,N/A,,Clear,340,2012-12-10 16:51:00
11:51 AM,42.1,19.0,40,30.17,10.0,NW,16.1,-,N/A,,Clear,320,2012-12-10 17:51:00
12:51 PM,44.1,17.1,34,30.14,10.0,North,18.4,23.0,N/A,,Clear,350,2012-12-10 18:51:00
1:51 PM,45.0,16.0,31,30.12,10.0,NNW,16.1,26.5,N/A,,Clear,340,2012-12-10 19:51:00
2:51 PM,46.9,16.0,29,30.11,10.0,NNW,16.1,24.2,N/A,,Clear,330,2012-12-10 20:51:00
3:51 PM,46.0,15.1,29,30.09,10.0,NNW,15.0,23.0,N/A,,Clear,340,2012-12-10 21:51:00
4:51 PM,44.1,14.0,30,30.09,10.0,North,12.7,-,N/A,,Clear,360,2012-12-10 22:51:00
5:51 PM,39.0,14.0,36,30.11,10.0,North,5.8,-,N/A,,Clear,350,2012-12-10 23:51:00
6:51 PM,36.0,15.1,43,30.12,10.0,NW,5.8,-,N/A,,Clear,310,2012-12-11 00:51:00
7:51 PM,34.0,15.1,46,30.14,10.0,NNW,5.8,-,N/A,,Clear,340,2012-12-11 01:51:00
8:51 PM,35.1,16.0,46,30.14,10.0,NNW,6.9,-,N/A,,Clear,330,2012-12-11 02:51:00
9:51 PM,30.9,16.0,54,30.14,10.0,NNW,5.8,-,N/A,,Clear,340,2012-12-11 03:51:00
10:51 PM,34.0,16.0,48,30.16,10.0,NNW,9.2,-,N/A,,Clear,330,2012-12-11 04:51:00
11:51 PM,28.9,15.1,56,30.16,10.0,NW,3.5,-,N/A,,Clear,320,2012-12-11 05:51:00